sensor_id;sensor_type;location;lat;lon;timestamp;P1;durP1;ratioP1;P2;durP2;ratioP2
22080;SDS011;11207;59.512;18.050;2022-10-18T00:01:53;4.67;;;2.50;;
22080;SDS011;11207;59.512;18.050;2022-10-18T00:04:19;4.37;;;2.50;;
22080;SDS011;11207;59.512;18.050;2022-10-18T00:06:45;2.67;;;2.40;;
22080;SDS011;11207;59.512;18.050;2022-10-18T00:09:11;5.60;;;2.70;;
22080;SDS011;11207;59.512;18.050;2022-10-18T00:11:37;3.87;;;2.70;;
22080;SDS011;11207;59.512;18.050;2022-10-18T00:14:02;5.07;;;2.90;;
22080;SDS011;11207;59.512;18.050;2022-10-18T00:16:28;5.40;;;3.07;;
22080;SDS011;11207;59.512;18.050;2022-10-18T00:18:54;5.90;;;2.70;;
22080;SDS011;11207;59.512;18.050;2022-10-18T00:21:20;4.90;;;2.80;;
22080;SDS011;11207;59.512;18.050;2022-10-18T00:23:48;4.70;;;2.80;;
22080;SDS011;11207;59.512;18.050;2022-10-18T00:26:15;4.50;;;3.03;;
22080;SDS011;11207;59.512;18.050;2022-10-18T00:28:43;5.33;;;2.70;;
22080;SDS011;11207;59.512;18.050;2022-10-18T00:31:17;3.50;;;2.67;;
22080;SDS011;11207;59.512;18.050;2022-10-18T00:33:43;4.60;;;2.60;;
22080;SDS011;11207;59.512;18.050;2022-10-18T00:36:11;5.27;;;2.80;;
22080;SDS011;11207;59.512;18.050;2022-10-18T00:38:37;6.77;;;2.70;;
22080;SDS011;11207;59.512;18.050;2022-10-18T00:41:04;6.07;;;2.53;;
22080;SDS011;11207;59.512;18.050;2022-10-18T00:43:32;5.67;;;2.70;;
22080;SDS011;11207;59.512;18.050;2022-10-18T00:46:14;5.23;;;2.83;;
22080;SDS011;11207;59.512;18.050;2022-10-18T00:48:39;3.27;;;2.50;;
22080;SDS011;11207;59.512;18.050;2022-10-18T00:51:05;4.23;;;2.40;;
22080;SDS011;11207;59.512;18.050;2022-10-18T00:53:30;6.47;;;2.73;;
22080;SDS011;11207;59.512;18.050;2022-10-18T00:55:56;4.63;;;2.53;;
22080;SDS011;11207;59.512;18.050;2022-10-18T00:58:22;3.97;;;2.63;;
22080;SDS011;11207;59.512;18.050;2022-10-18T01:00:47;4.37;;;2.70;;
22080;SDS011;11207;59.512;18.050;2022-10-18T01:03:13;6.30;;;2.50;;
22080;SDS011;11207;59.512;18.050;2022-10-18T01:05:41;3.13;;;2.40;;
22080;SDS011;11207;59.512;18.050;2022-10-18T01:11:03;4.83;;;2.33;;
22080;SDS011;11207;59.512;18.050;2022-10-18T01:16:36;6.53;;;2.83;;
22080;SDS011;11207;59.512;18.050;2022-10-18T01:30:33;3.97;;;2.50;;
22080;SDS011;11207;59.512;18.050;2022-10-18T01:36:14;3.33;;;2.17;;
22080;SDS011;11207;59.512;18.050;2022-10-18T01:38:56;4.63;;;2.30;;
22080;SDS011;11207;59.512;18.050;2022-10-18T01:41:26;4.57;;;2.30;;
22080;SDS011;11207;59.512;18.050;2022-10-18T01:43:55;5.83;;;2.40;;
22080;SDS011;11207;59.512;18.050;2022-10-18T01:46:24;4.70;;;2.53;;
22080;SDS011;11207;59.512;18.050;2022-10-18T01:48:50;3.00;;;2.50;;
22080;SDS011;11207;59.512;18.050;2022-10-18T01:51:27;4.30;;;2.60;;
22080;SDS011;11207;59.512;18.050;2022-10-18T01:53:54;3.23;;;2.50;;
22080;SDS011;11207;59.512;18.050;2022-10-18T01:56:23;2.53;;;2.30;;
22080;SDS011;11207;59.512;18.050;2022-10-18T02:01:38;5.93;;;2.60;;
22080;SDS011;11207;59.512;18.050;2022-10-18T02:04:30;4.07;;;2.30;;
22080;SDS011;11207;59.512;18.050;2022-10-18T02:07:08;3.47;;;2.20;;
22080;SDS011;11207;59.512;18.050;2022-10-18T02:12:32;6.67;;;2.40;;
22080;SDS011;11207;59.512;18.050;2022-10-18T02:15:01;5.97;;;2.67;;
22080;SDS011;11207;59.512;18.050;2022-10-18T02:17:29;4.73;;;2.60;;
22080;SDS011;11207;59.512;18.050;2022-10-18T02:19:55;4.13;;;2.50;;
22080;SDS011;11207;59.512;18.050;2022-10-18T02:22:21;4.17;;;2.47;;
22080;SDS011;11207;59.512;18.050;2022-10-18T02:24:52;6.50;;;2.50;;
22080;SDS011;11207;59.512;18.050;2022-10-18T02:27:21;4.17;;;2.20;;
22080;SDS011;11207;59.512;18.050;2022-10-18T02:29:47;2.50;;;2.20;;
22080;SDS011;11207;59.512;18.050;2022-10-18T02:32:47;2.83;;;2.10;;
22080;SDS011;11207;59.512;18.050;2022-10-18T02:38:01;2.33;;;2.13;;
22080;SDS011;11207;59.512;18.050;2022-10-18T02:40:29;2.40;;;2.20;;
22080;SDS011;11207;59.512;18.050;2022-10-18T02:42:56;2.20;;;1.90;;
22080;SDS011;11207;59.512;18.050;2022-10-18T02:45:23;2.53;;;2.33;;
22080;SDS011;11207;59.512;18.050;2022-10-18T02:47:49;2.27;;;2.07;;
22080;SDS011;11207;59.512;18.050;2022-10-18T02:50:15;2.50;;;2.30;;
22080;SDS011;11207;59.512;18.050;2022-10-18T02:52:41;2.60;;;2.23;;
22080;SDS011;11207;59.512;18.050;2022-10-18T02:55:07;4.07;;;2.50;;
22080;SDS011;11207;59.512;18.050;2022-10-18T02:57:33;4.57;;;2.67;;
22080;SDS011;11207;59.512;18.050;2022-10-18T02:59:59;3.13;;;2.47;;
22080;SDS011;11207;59.512;18.050;2022-10-18T03:02:25;2.30;;;2.20;;
22080;SDS011;11207;59.512;18.050;2022-10-18T03:04:51;2.57;;;2.37;;
22080;SDS011;11207;59.512;18.050;2022-10-18T03:07:16;3.43;;;2.50;;
22080;SDS011;11207;59.512;18.050;2022-10-18T03:09:42;3.50;;;2.40;;
22080;SDS011;11207;59.512;18.050;2022-10-18T03:12:07;4.50;;;2.47;;
22080;SDS011;11207;59.512;18.050;2022-10-18T03:14:33;2.63;;;2.30;;
22080;SDS011;11207;59.512;18.050;2022-10-18T03:16:59;3.37;;;2.40;;
22080;SDS011;11207;59.512;18.050;2022-10-18T03:19:24;3.33;;;2.53;;
22080;SDS011;11207;59.512;18.050;2022-10-18T03:21:50;2.80;;;2.33;;
22080;SDS011;11207;59.512;18.050;2022-10-18T03:24:15;2.17;;;1.97;;
22080;SDS011;11207;59.512;18.050;2022-10-18T03:26:41;2.03;;;1.90;;
22080;SDS011;11207;59.512;18.050;2022-10-18T03:29:08;4.13;;;2.40;;
22080;SDS011;11207;59.512;18.050;2022-10-18T03:31:34;3.73;;;2.13;;
22080;SDS011;11207;59.512;18.050;2022-10-18T03:33:59;2.87;;;2.07;;
22080;SDS011;11207;59.512;18.050;2022-10-18T03:36:25;3.23;;;2.10;;
22080;SDS011;11207;59.512;18.050;2022-10-18T03:38:51;2.17;;;1.97;;
22080;SDS011;11207;59.512;18.050;2022-10-18T03:41:16;6.03;;;2.37;;
22080;SDS011;11207;59.512;18.050;2022-10-18T03:43:42;4.67;;;2.33;;
22080;SDS011;11207;59.512;18.050;2022-10-18T03:46:08;4.17;;;2.50;;
22080;SDS011;11207;59.512;18.050;2022-10-18T03:48:33;2.80;;;2.37;;
22080;SDS011;11207;59.512;18.050;2022-10-18T03:50:59;3.73;;;2.83;;
22080;SDS011;11207;59.512;18.050;2022-10-18T03:53:25;8.43;;;2.83;;
22080;SDS011;11207;59.512;18.050;2022-10-18T03:55:51;6.03;;;3.17;;
22080;SDS011;11207;59.512;18.050;2022-10-18T03:58:17;3.60;;;2.83;;
22080;SDS011;11207;59.512;18.050;2022-10-18T04:00:43;4.60;;;2.90;;
22080;SDS011;11207;59.512;18.050;2022-10-18T04:03:08;3.73;;;3.13;;
22080;SDS011;11207;59.512;18.050;2022-10-18T04:05:34;10.23;;;3.20;;
22080;SDS011;11207;59.512;18.050;2022-10-18T04:08:00;3.53;;;2.60;;
22080;SDS011;11207;59.512;18.050;2022-10-18T04:10:27;3.67;;;2.83;;
22080;SDS011;11207;59.512;18.050;2022-10-18T04:12:53;5.23;;;2.83;;
22080;SDS011;11207;59.512;18.050;2022-10-18T04:15:18;4.57;;;2.53;;
22080;SDS011;11207;59.512;18.050;2022-10-18T04:17:44;4.13;;;2.30;;
22080;SDS011;11207;59.512;18.050;2022-10-18T04:20:11;3.47;;;2.97;;
22080;SDS011;11207;59.512;18.050;2022-10-18T04:22:36;2.50;;;2.30;;
22080;SDS011;11207;59.512;18.050;2022-10-18T04:25:02;2.90;;;2.60;;
22080;SDS011;11207;59.512;18.050;2022-10-18T04:27:28;2.80;;;2.50;;
22080;SDS011;11207;59.512;18.050;2022-10-18T04:29:54;2.77;;;2.30;;
22080;SDS011;11207;59.512;18.050;2022-10-18T04:32:19;4.20;;;2.37;;
22080;SDS011;11207;59.512;18.050;2022-10-18T04:34:45;3.20;;;2.30;;
22080;SDS011;11207;59.512;18.050;2022-10-18T04:37:11;4.53;;;2.70;;
22080;SDS011;11207;59.512;18.050;2022-10-18T04:39:36;2.90;;;2.47;;
22080;SDS011;11207;59.512;18.050;2022-10-18T04:42:02;3.27;;;2.70;;
22080;SDS011;11207;59.512;18.050;2022-10-18T04:44:27;4.50;;;2.50;;
22080;SDS011;11207;59.512;18.050;2022-10-18T04:46:53;4.10;;;2.37;;
22080;SDS011;11207;59.512;18.050;2022-10-18T04:49:19;2.53;;;2.30;;
22080;SDS011;11207;59.512;18.050;2022-10-18T04:51:44;3.43;;;2.40;;
22080;SDS011;11207;59.512;18.050;2022-10-18T04:54:10;5.23;;;2.60;;
22080;SDS011;11207;59.512;18.050;2022-10-18T04:56:36;2.63;;;2.43;;
22080;SDS011;11207;59.512;18.050;2022-10-18T04:59:01;2.63;;;2.43;;
22080;SDS011;11207;59.512;18.050;2022-10-18T05:01:27;3.47;;;2.27;;
22080;SDS011;11207;59.512;18.050;2022-10-18T05:03:53;2.70;;;2.50;;
22080;SDS011;11207;59.512;18.050;2022-10-18T05:06:19;2.07;;;1.97;;
22080;SDS011;11207;59.512;18.050;2022-10-18T05:08:46;2.63;;;2.20;;
22080;SDS011;11207;59.512;18.050;2022-10-18T05:11:12;3.33;;;2.20;;
22080;SDS011;11207;59.512;18.050;2022-10-18T05:13:38;2.80;;;2.50;;
22080;SDS011;11207;59.512;18.050;2022-10-18T05:16:04;2.70;;;2.50;;
22080;SDS011;11207;59.512;18.050;2022-10-18T05:18:29;2.53;;;2.33;;
22080;SDS011;11207;59.512;18.050;2022-10-18T05:20:55;3.77;;;2.23;;
22080;SDS011;11207;59.512;18.050;2022-10-18T05:23:21;2.10;;;2.00;;
22080;SDS011;11207;59.512;18.050;2022-10-18T05:25:48;2.43;;;2.23;;
22080;SDS011;11207;59.512;18.050;2022-10-18T05:28:13;2.77;;;2.57;;
22080;SDS011;11207;59.512;18.050;2022-10-18T05:30:39;4.10;;;2.40;;
22080;SDS011;11207;59.512;18.050;2022-10-18T05:33:06;3.07;;;2.50;;
22080;SDS011;11207;59.512;18.050;2022-10-18T05:35:32;2.80;;;2.60;;
22080;SDS011;11207;59.512;18.050;2022-10-18T05:38:00;4.80;;;3.00;;
22080;SDS011;11207;59.512;18.050;2022-10-18T05:40:27;2.50;;;2.30;;
22080;SDS011;11207;59.512;18.050;2022-10-18T05:42:53;3.27;;;2.43;;
22080;SDS011;11207;59.512;18.050;2022-10-18T05:45:19;4.37;;;2.43;;
22080;SDS011;11207;59.512;18.050;2022-10-18T05:47:44;2.80;;;2.40;;
22080;SDS011;11207;59.512;18.050;2022-10-18T05:50:10;2.37;;;2.17;;
22080;SDS011;11207;59.512;18.050;2022-10-18T05:52:36;5.50;;;2.57;;
22080;SDS011;11207;59.512;18.050;2022-10-18T05:55:01;3.63;;;2.20;;
22080;SDS011;11207;59.512;18.050;2022-10-18T05:57:27;3.03;;;2.10;;
22080;SDS011;11207;59.512;18.050;2022-10-18T05:59:52;2.40;;;2.20;;
22080;SDS011;11207;59.512;18.050;2022-10-18T06:02:18;3.43;;;2.10;;
22080;SDS011;11207;59.512;18.050;2022-10-18T06:04:44;2.10;;;2.00;;
22080;SDS011;11207;59.512;18.050;2022-10-18T06:07:09;2.20;;;2.10;;
22080;SDS011;11207;59.512;18.050;2022-10-18T06:09:36;2.50;;;2.30;;
22080;SDS011;11207;59.512;18.050;2022-10-18T06:12:02;3.23;;;2.13;;
22080;SDS011;11207;59.512;18.050;2022-10-18T06:14:28;3.83;;;2.07;;
22080;SDS011;11207;59.512;18.050;2022-10-18T06:16:54;2.03;;;1.90;;
22080;SDS011;11207;59.512;18.050;2022-10-18T06:19:21;2.80;;;2.17;;
22080;SDS011;11207;59.512;18.050;2022-10-18T06:21:47;3.27;;;1.90;;
22080;SDS011;11207;59.512;18.050;2022-10-18T06:24:12;3.80;;;2.50;;
22080;SDS011;11207;59.512;18.050;2022-10-18T06:26:38;2.50;;;2.00;;
22080;SDS011;11207;59.512;18.050;2022-10-18T06:29:04;2.17;;;2.07;;
22080;SDS011;11207;59.512;18.050;2022-10-18T06:31:29;1.93;;;1.83;;
22080;SDS011;11207;59.512;18.050;2022-10-18T06:33:55;2.00;;;1.87;;
22080;SDS011;11207;59.512;18.050;2022-10-18T06:36:24;5.23;;;2.10;;
22080;SDS011;11207;59.512;18.050;2022-10-18T06:38:50;2.43;;;2.23;;
22080;SDS011;11207;59.512;18.050;2022-10-18T06:41:16;2.10;;;1.90;;
22080;SDS011;11207;59.512;18.050;2022-10-18T06:43:46;3.83;;;2.20;;
22080;SDS011;11207;59.512;18.050;2022-10-18T06:46:17;2.87;;;2.10;;
22080;SDS011;11207;59.512;18.050;2022-10-18T06:48:43;2.30;;;2.20;;
22080;SDS011;11207;59.512;18.050;2022-10-18T06:53:58;2.03;;;1.90;;
22080;SDS011;11207;59.512;18.050;2022-10-18T06:56:23;3.67;;;1.97;;
22080;SDS011;11207;59.512;18.050;2022-10-18T06:58:49;1.90;;;1.80;;
22080;SDS011;11207;59.512;18.050;2022-10-18T07:01:15;2.30;;;2.00;;
22080;SDS011;11207;59.512;18.050;2022-10-18T07:03:42;2.83;;;2.30;;
22080;SDS011;11207;59.512;18.050;2022-10-18T07:06:09;3.87;;;2.03;;
22080;SDS011;11207;59.512;18.050;2022-10-18T07:08:36;3.73;;;2.30;;
22080;SDS011;11207;59.512;18.050;2022-10-18T07:11:02;2.80;;;2.60;;
22080;SDS011;11207;59.512;18.050;2022-10-18T07:13:30;4.37;;;2.70;;
22080;SDS011;11207;59.512;18.050;2022-10-18T07:16:06;3.67;;;3.10;;
22080;SDS011;11207;59.512;18.050;2022-10-18T07:18:34;6.17;;;2.87;;
22080;SDS011;11207;59.512;18.050;2022-10-18T07:21:05;3.70;;;3.17;;
22080;SDS011;11207;59.512;18.050;2022-10-18T07:23:32;8.00;;;3.40;;
22080;SDS011;11207;59.512;18.050;2022-10-18T07:25:59;4.83;;;3.20;;
22080;SDS011;11207;59.512;18.050;2022-10-18T07:28:26;3.83;;;3.03;;
22080;SDS011;11207;59.512;18.050;2022-10-18T07:30:52;8.63;;;3.27;;
22080;SDS011;11207;59.512;18.050;2022-10-18T07:33:18;3.30;;;2.80;;
22080;SDS011;11207;59.512;18.050;2022-10-18T07:35:45;3.60;;;2.80;;
22080;SDS011;11207;59.512;18.050;2022-10-18T07:38:11;5.30;;;2.53;;
22080;SDS011;11207;59.512;18.050;2022-10-18T07:40:36;5.30;;;2.93;;
22080;SDS011;11207;59.512;18.050;2022-10-18T07:43:02;3.30;;;2.60;;
22080;SDS011;11207;59.512;18.050;2022-10-18T07:45:28;4.50;;;2.30;;
22080;SDS011;11207;59.512;18.050;2022-10-18T07:47:57;2.93;;;2.30;;
22080;SDS011;11207;59.512;18.050;2022-10-18T07:50:23;3.33;;;2.20;;
22080;SDS011;11207;59.512;18.050;2022-10-18T07:52:49;2.67;;;2.47;;
22080;SDS011;11207;59.512;18.050;2022-10-18T07:55:14;4.77;;;2.40;;
22080;SDS011;11207;59.512;18.050;2022-10-18T07:57:40;2.43;;;2.23;;
22080;SDS011;11207;59.512;18.050;2022-10-18T08:00:06;2.93;;;2.20;;
22080;SDS011;11207;59.512;18.050;2022-10-18T08:02:33;2.43;;;2.23;;
22080;SDS011;11207;59.512;18.050;2022-10-18T08:04:58;2.80;;;2.03;;
22080;SDS011;11207;59.512;18.050;2022-10-18T08:07:24;3.07;;;2.10;;
22080;SDS011;11207;59.512;18.050;2022-10-18T08:09:50;2.50;;;2.30;;
22080;SDS011;11207;59.512;18.050;2022-10-18T08:12:15;4.77;;;2.20;;
22080;SDS011;11207;59.512;18.050;2022-10-18T08:14:41;2.40;;;2.07;;
22080;SDS011;11207;59.512;18.050;2022-10-18T08:17:07;2.10;;;2.00;;
22080;SDS011;11207;59.512;18.050;2022-10-18T08:19:32;2.47;;;2.10;;
22080;SDS011;11207;59.512;18.050;2022-10-18T08:21:58;2.33;;;2.10;;
22080;SDS011;11207;59.512;18.050;2022-10-18T08:24:24;3.03;;;2.13;;
22080;SDS011;11207;59.512;18.050;2022-10-18T08:26:49;3.90;;;2.40;;
22080;SDS011;11207;59.512;18.050;2022-10-18T08:29:15;2.50;;;2.10;;
22080;SDS011;11207;59.512;18.050;2022-10-18T08:31:41;2.93;;;1.73;;
22080;SDS011;11207;59.512;18.050;2022-10-18T08:34:07;2.10;;;1.90;;
22080;SDS011;11207;59.512;18.050;2022-10-18T08:36:32;2.37;;;1.97;;
22080;SDS011;11207;59.512;18.050;2022-10-18T08:38:58;1.97;;;1.70;;
22080;SDS011;11207;59.512;18.050;2022-10-18T08:46:51;6.17;;;2.20;;
22080;SDS011;11207;59.512;18.050;2022-10-18T08:49:27;2.07;;;1.90;;
22080;SDS011;11207;59.512;18.050;2022-10-18T08:51:57;1.80;;;1.70;;
22080;SDS011;11207;59.512;18.050;2022-10-18T08:54:42;1.80;;;1.70;;
22080;SDS011;11207;59.512;18.050;2022-10-18T08:57:16;1.90;;;1.80;;
22080;SDS011;11207;59.512;18.050;2022-10-18T08:59:42;2.33;;;1.90;;
22080;SDS011;11207;59.512;18.050;2022-10-18T09:04:47;2.73;;;1.70;;
22080;SDS011;11207;59.512;18.050;2022-10-18T09:13:26;2.60;;;1.70;;
22080;SDS011;11207;59.512;18.050;2022-10-18T09:24:12;1.40;;;1.40;;
22080;SDS011;11207;59.512;18.050;2022-10-18T09:27:03;1.70;;;1.60;;
22080;SDS011;11207;59.512;18.050;2022-10-18T09:35:15;1.80;;;1.70;;
22080;SDS011;11207;59.512;18.050;2022-10-18T09:37:39;1.40;;;1.40;;
22080;SDS011;11207;59.512;18.050;2022-10-18T09:40:17;1.70;;;1.70;;
22080;SDS011;11207;59.512;18.050;2022-10-18T09:42:51;1.73;;;1.60;;
22080;SDS011;11207;59.512;18.050;2022-10-18T09:50:34;1.50;;;1.40;;
22080;SDS011;11207;59.512;18.050;2022-10-18T09:53:14;1.57;;;1.50;;
22080;SDS011;11207;59.512;18.050;2022-10-18T09:56:08;1.53;;;1.50;;
22080;SDS011;11207;59.512;18.050;2022-10-18T09:58:40;1.97;;;1.83;;
22080;SDS011;11207;59.512;18.050;2022-10-18T10:01:07;2.20;;;1.50;;
22080;SDS011;11207;59.512;18.050;2022-10-18T10:03:34;1.80;;;1.40;;
22080;SDS011;11207;59.512;18.050;2022-10-18T10:06:42;1.60;;;1.50;;
22080;SDS011;11207;59.512;18.050;2022-10-18T10:08:53;1.53;;;1.43;;
22080;SDS011;11207;59.512;18.050;2022-10-18T10:11:37;1.43;;;1.33;;
22080;SDS011;11207;59.512;18.050;2022-10-18T10:14:27;1.70;;;1.50;;
22080;SDS011;11207;59.512;18.050;2022-10-18T10:22:01;2.07;;;1.90;;
22080;SDS011;11207;59.512;18.050;2022-10-18T10:24:49;1.80;;;1.70;;
22080;SDS011;11207;59.512;18.050;2022-10-18T10:27:23;2.17;;;1.60;;
22080;SDS011;11207;59.512;18.050;2022-10-18T10:29:56;2.93;;;1.60;;
22080;SDS011;11207;59.512;18.050;2022-10-18T10:32:25;1.60;;;1.50;;
22080;SDS011;11207;59.512;18.050;2022-10-18T10:34:53;1.50;;;1.40;;
22080;SDS011;11207;59.512;18.050;2022-10-18T10:42:48;2.37;;;1.80;;
22080;SDS011;11207;59.512;18.050;2022-10-18T10:45:21;1.70;;;1.60;;
22080;SDS011;11207;59.512;18.050;2022-10-18T10:47:48;1.70;;;1.50;;
22080;SDS011;11207;59.512;18.050;2022-10-18T10:50:21;2.27;;;1.73;;
22080;SDS011;11207;59.512;18.050;2022-10-18T10:52:49;3.03;;;1.70;;
22080;SDS011;11207;59.512;18.050;2022-10-18T10:55:18;2.07;;;1.60;;
22080;SDS011;11207;59.512;18.050;2022-10-18T10:57:48;2.13;;;1.77;;
22080;SDS011;11207;59.512;18.050;2022-10-18T11:03:13;1.80;;;1.60;;
22080;SDS011;11207;59.512;18.050;2022-10-18T11:05:43;1.90;;;1.80;;
22080;SDS011;11207;59.512;18.050;2022-10-18T11:08:11;2.10;;;1.90;;
22080;SDS011;11207;59.512;18.050;2022-10-18T11:13:48;2.20;;;1.90;;
22080;SDS011;11207;59.512;18.050;2022-10-18T11:16:28;2.30;;;2.10;;
22080;SDS011;11207;59.512;18.050;2022-10-18T11:19:02;2.03;;;1.93;;
22080;SDS011;11207;59.512;18.050;2022-10-18T11:21:36;2.60;;;2.00;;
22080;SDS011;11207;59.512;18.050;2022-10-18T11:24:03;2.40;;;1.83;;
22080;SDS011;11207;59.512;18.050;2022-10-18T11:29:25;3.07;;;2.10;;
22080;SDS011;11207;59.512;18.050;2022-10-18T11:43:09;2.50;;;2.10;;
22080;SDS011;11207;59.512;18.050;2022-10-18T11:45:53;3.13;;;2.10;;
22080;SDS011;11207;59.512;18.050;2022-10-18T11:56:47;2.27;;;2.07;;
22080;SDS011;11207;59.512;18.050;2022-10-18T12:05:02;2.43;;;2.23;;
22080;SDS011;11207;59.512;18.050;2022-10-18T12:07:31;2.50;;;2.30;;
22080;SDS011;11207;59.512;18.050;2022-10-18T12:10:02;2.70;;;2.30;;
22080;SDS011;11207;59.512;18.050;2022-10-18T12:12:32;2.77;;;2.43;;
22080;SDS011;11207;59.512;18.050;2022-10-18T12:15:12;3.00;;;2.10;;
22080;SDS011;11207;59.512;18.050;2022-10-18T12:17:44;2.37;;;2.17;;
22080;SDS011;11207;59.512;18.050;2022-10-18T12:20:15;2.60;;;2.20;;
22080;SDS011;11207;59.512;18.050;2022-10-18T12:22:46;2.13;;;1.93;;
22080;SDS011;11207;59.512;18.050;2022-10-18T12:25:16;2.37;;;1.90;;
22080;SDS011;11207;59.512;18.050;2022-10-18T12:27:45;3.47;;;2.03;;
22080;SDS011;11207;59.512;18.050;2022-10-18T12:32:52;5.23;;;2.00;;
22080;SDS011;11207;59.512;18.050;2022-10-18T12:35:28;2.43;;;1.90;;
22080;SDS011;11207;59.512;18.050;2022-10-18T12:38:13;2.20;;;2.10;;
22080;SDS011;11207;59.512;18.050;2022-10-18T12:40:45;3.37;;;2.03;;
22080;SDS011;11207;59.512;18.050;2022-10-18T12:43:32;2.70;;;2.30;;
22080;SDS011;11207;59.512;18.050;2022-10-18T12:46:06;2.40;;;2.20;;
22080;SDS011;11207;59.512;18.050;2022-10-18T12:53:42;2.37;;;2.03;;
22080;SDS011;11207;59.512;18.050;2022-10-18T13:04:35;2.73;;;1.83;;
22080;SDS011;11207;59.512;18.050;2022-10-18T13:07:16;2.10;;;2.00;;
22080;SDS011;11207;59.512;18.050;2022-10-18T13:15:30;2.53;;;1.80;;
22080;SDS011;11207;59.512;18.050;2022-10-18T13:18:09;2.10;;;1.90;;
22080;SDS011;11207;59.512;18.050;2022-10-18T13:20:53;3.20;;;1.90;;
22080;SDS011;11207;59.512;18.050;2022-10-18T13:23:36;2.10;;;2.00;;
22080;SDS011;11207;59.512;18.050;2022-10-18T13:29:24;1.80;;;1.70;;
22080;SDS011;11207;59.512;18.050;2022-10-18T13:34:46;1.97;;;1.83;;
22080;SDS011;11207;59.512;18.050;2022-10-18T13:39:38;2.00;;;1.90;;
22080;SDS011;11207;59.512;18.050;2022-10-18T13:44:39;1.97;;;1.87;;
22080;SDS011;11207;59.512;18.050;2022-10-18T14:05:56;2.17;;;1.97;;
22080;SDS011;11207;59.512;18.050;2022-10-18T14:13:45;2.00;;;1.90;;
22080;SDS011;11207;59.512;18.050;2022-10-18T14:16:28;1.80;;;1.70;;
22080;SDS011;11207;59.512;18.050;2022-10-18T14:19:16;2.23;;;1.90;;
22080;SDS011;11207;59.512;18.050;2022-10-18T14:21:53;2.00;;;1.80;;
22080;SDS011;11207;59.512;18.050;2022-10-18T14:24:24;1.90;;;1.80;;
22080;SDS011;11207;59.512;18.050;2022-10-18T14:27:08;1.97;;;1.80;;
22080;SDS011;11207;59.512;18.050;2022-10-18T14:29:44;1.43;;;1.40;;
22080;SDS011;11207;59.512;18.050;2022-10-18T14:32:21;1.80;;;1.70;;
22080;SDS011;11207;59.512;18.050;2022-10-18T14:34:52;1.63;;;1.53;;
22080;SDS011;11207;59.512;18.050;2022-10-18T14:37:20;1.63;;;1.50;;
22080;SDS011;11207;59.512;18.050;2022-10-18T14:39:56;1.43;;;1.43;;
22080;SDS011;11207;59.512;18.050;2022-10-18T14:42:23;1.50;;;1.40;;
22080;SDS011;11207;59.512;18.050;2022-10-18T14:44:51;1.60;;;1.50;;
22080;SDS011;11207;59.512;18.050;2022-10-18T14:49:55;1.33;;;1.33;;
22080;SDS011;11207;59.512;18.050;2022-10-18T14:52:33;1.60;;;1.50;;
22080;SDS011;11207;59.512;18.050;2022-10-18T14:54:59;1.50;;;1.50;;
22080;SDS011;11207;59.512;18.050;2022-10-18T14:57:30;1.67;;;1.57;;
22080;SDS011;11207;59.512;18.050;2022-10-18T15:00:00;2.30;;;1.60;;
22080;SDS011;11207;59.512;18.050;2022-10-18T15:02:29;1.70;;;1.60;;
22080;SDS011;11207;59.512;18.050;2022-10-18T15:05:07;1.80;;;1.70;;
22080;SDS011;11207;59.512;18.050;2022-10-18T15:07:42;2.73;;;2.53;;
22080;SDS011;11207;59.512;18.050;2022-10-18T15:10:09;2.10;;;2.00;;
22080;SDS011;11207;59.512;18.050;2022-10-18T15:12:41;2.10;;;1.90;;
22080;SDS011;11207;59.512;18.050;2022-10-18T15:15:19;1.73;;;1.63;;
22080;SDS011;11207;59.512;18.050;2022-10-18T15:17:46;4.60;;;1.90;;
22080;SDS011;11207;59.512;18.050;2022-10-18T15:20:23;1.80;;;1.70;;
22080;SDS011;11207;59.512;18.050;2022-10-18T15:23:17;1.90;;;1.80;;
22080;SDS011;11207;59.512;18.050;2022-10-18T15:25:47;1.70;;;1.60;;
22080;SDS011;11207;59.512;18.050;2022-10-18T15:28:21;1.90;;;1.80;;
22080;SDS011;11207;59.512;18.050;2022-10-18T15:30:57;1.90;;;1.80;;
22080;SDS011;11207;59.512;18.050;2022-10-18T15:33:38;1.80;;;1.70;;
22080;SDS011;11207;59.512;18.050;2022-10-18T15:36:08;1.67;;;1.57;;
22080;SDS011;11207;59.512;18.050;2022-10-18T15:38:35;1.60;;;1.50;;
22080;SDS011;11207;59.512;18.050;2022-10-18T15:41:01;1.80;;;1.70;;
22080;SDS011;11207;59.512;18.050;2022-10-18T15:43:47;1.80;;;1.70;;
22080;SDS011;11207;59.512;18.050;2022-10-18T15:46:27;1.80;;;1.70;;
22080;SDS011;11207;59.512;18.050;2022-10-18T15:48:56;1.73;;;1.63;;
22080;SDS011;11207;59.512;18.050;2022-10-18T15:54:18;1.80;;;1.70;;
22080;SDS011;11207;59.512;18.050;2022-10-18T15:56:54;1.80;;;1.70;;
22080;SDS011;11207;59.512;18.050;2022-10-18T15:59:21;1.90;;;1.73;;
22080;SDS011;11207;59.512;18.050;2022-10-18T16:01:52;1.80;;;1.70;;
22080;SDS011;11207;59.512;18.050;2022-10-18T16:04:19;1.87;;;1.73;;
22080;SDS011;11207;59.512;18.050;2022-10-18T16:06:51;1.53;;;1.50;;
22080;SDS011;11207;59.512;18.050;2022-10-18T16:09:18;2.00;;;1.90;;
22080;SDS011;11207;59.512;18.050;2022-10-18T16:11:44;3.80;;;2.10;;
22080;SDS011;11207;59.512;18.050;2022-10-18T16:14:11;5.17;;;1.80;;
22080;SDS011;11207;59.512;18.050;2022-10-18T16:16:37;2.57;;;1.63;;
22080;SDS011;11207;59.512;18.050;2022-10-18T16:19:04;2.80;;;1.90;;
22080;SDS011;11207;59.512;18.050;2022-10-18T16:21:32;1.77;;;1.67;;
22080;SDS011;11207;59.512;18.050;2022-10-18T16:24:00;1.80;;;1.70;;
22080;SDS011;11207;59.512;18.050;2022-10-18T16:26:26;1.80;;;1.70;;
22080;SDS011;11207;59.512;18.050;2022-10-18T16:28:53;1.90;;;1.80;;
22080;SDS011;11207;59.512;18.050;2022-10-18T16:31:23;1.80;;;1.70;;
22080;SDS011;11207;59.512;18.050;2022-10-18T16:33:51;1.97;;;1.83;;
22080;SDS011;11207;59.512;18.050;2022-10-18T16:36:19;1.90;;;1.80;;
22080;SDS011;11207;59.512;18.050;2022-10-18T16:38:46;3.17;;;1.80;;
22080;SDS011;11207;59.512;18.050;2022-10-18T16:41:13;3.60;;;2.40;;
22080;SDS011;11207;59.512;18.050;2022-10-18T16:43:40;2.33;;;2.10;;
22080;SDS011;11207;59.512;18.050;2022-10-18T16:46:09;2.20;;;2.00;;
22080;SDS011;11207;59.512;18.050;2022-10-18T16:48:45;2.00;;;1.90;;
22080;SDS011;11207;59.512;18.050;2022-10-18T16:51:12;2.30;;;1.77;;
22080;SDS011;11207;59.512;18.050;2022-10-18T16:53:38;3.03;;;1.80;;
22080;SDS011;11207;59.512;18.050;2022-10-18T16:56:05;2.10;;;2.00;;
22080;SDS011;11207;59.512;18.050;2022-10-18T16:58:39;1.97;;;1.87;;
22080;SDS011;11207;59.512;18.050;2022-10-18T17:01:05;2.07;;;1.97;;
22080;SDS011;11207;59.512;18.050;2022-10-18T17:03:31;4.70;;;2.07;;
22080;SDS011;11207;59.512;18.050;2022-10-18T17:05:57;2.37;;;2.27;;
22080;SDS011;11207;59.512;18.050;2022-10-18T17:08:23;2.00;;;1.90;;
22080;SDS011;11207;59.512;18.050;2022-10-18T17:10:52;2.70;;;2.10;;
22080;SDS011;11207;59.512;18.050;2022-10-18T17:13:21;1.90;;;1.80;;
22080;SDS011;11207;59.512;18.050;2022-10-18T17:15:47;2.73;;;2.50;;
22080;SDS011;11207;59.512;18.050;2022-10-18T17:18:14;3.40;;;2.23;;
22080;SDS011;11207;59.512;18.050;2022-10-18T17:20:42;2.40;;;2.20;;
22080;SDS011;11207;59.512;18.050;2022-10-18T17:23:08;3.50;;;2.10;;
22080;SDS011;11207;59.512;18.050;2022-10-18T17:25:35;2.97;;;2.70;;
22080;SDS011;11207;59.512;18.050;2022-10-18T17:28:02;2.50;;;2.27;;
22080;SDS011;11207;59.512;18.050;2022-10-18T17:30:29;2.90;;;2.40;;
22080;SDS011;11207;59.512;18.050;2022-10-18T17:32:55;2.60;;;2.40;;
22080;SDS011;11207;59.512;18.050;2022-10-18T17:35:21;2.60;;;2.40;;
22080;SDS011;11207;59.512;18.050;2022-10-18T17:37:47;3.67;;;2.30;;